Meteo Giornale » Osservazioni meteo Arabia Saudita » Dhahran
ore: 22:00 - Osservazioni Meteo Dhahran
Lat. 26° 16' N Lon. 50° 9' E Alt. 26 metri s.l.m.
36 °C
Sereno
Temp. 24 Ore
33 °C
41 °C
Nord-Ovest
16.7 Km/h
Dew point 14 °C
Umidità 26 %
Visibilità 10 Km
Il sole sorge alle ore 05:19
Il sole tramonta alle ore 17:59
| Data e Ora | Cielo e Fenomeni | T °C | DP °C | Um. % | Pres. hPa | Vis. km | Vento km/h | |
|---|---|---|---|---|---|---|---|---|
| Oggi h: 22:00 | Sereno | 36 | 14 | 26 | 1002 | 10 | NO 16.7 | |
| Oggi h: 21:00 | Sereno | 36 | 17 | 32 | 1002 | 10 | N/NO 22.2 | |
| Oggi h: 20:00 | Sereno | 36 | 17 | 32 | 1002 | 10 | N/NO 25.9 | |
| Oggi h: 19:00 | Sereno | 37 | 17 | 30 | 1001 | 10 | N/NO 27.8 | |
| Oggi h: 18:00 | Sereno | 37 | 18 | 32 | 1001 | 10 | N/NO 35.2 | |
| Oggi h: 17:00 | Sereno | 38 | 18 | 31 | 1001 | 10 | N/NO 35.2 | |
| Oggi h: 16:00 | Sereno | 40 | 16 | 24 | 1001 | 10 | N/NO 38.8 | |
| Oggi h: 15:00 | Sereno | 40 | 16 | 24 | 1000 | 8 | N 42.6 | |
| Oggi h: 14:00 | Sereno | 41 | 17 | 24 | 1001 | 6 | N 46.3 | |
| Oggi h: 13:00 | Sereno | 41 | 18 | 26 | 1001 | 6 | N/NO 48.1 | |
| Oggi h: 12:00 | Sereno | 41 | 19 | 28 | 1001 | 6 | N 46.3 | |
| Oggi h: 11:00 | Molto ventoso con polvere | 41 | 18 | 26 | 1001 | 4 | N 42.6 | |
| Oggi h: 10:00 | Molto ventoso con polvere | 41 | 19 | 28 | 1002 | 3 | N/NO 48.1 | |
| Oggi h: 09:00 | Molto ventoso con polvere | 39 | 20 | 33 | 1001 | 5 | N 40.7 | |
| Oggi h: 08:00 | Sereno | 38 | 23 | 42 | 1001 | 8 | N/NO 38.8 | |
| Oggi h: 07:00 | Sereno | 37 | 23 | 44 | 1001 | 8 | N/NO 37 | |
| Oggi h: 06:00 | Sereno | 36 | 22 | 44 | 1001 | 10 | N/NO 33.3 | |
| Oggi h: 05:00 | Sereno | 35 | 23 | 49 | 1001 | 10 | NO 13 | |
| Oggi h: 04:00 | Sereno | 35 | 21 | 44 | 1000 | 10 | NO 13 | |
| Oggi h: 03:00 | Sereno | 33 | 19 | 43 | 1000 | 10 | O/NO 11.1 | |
| Oggi h: 02:00 | Sereno | 34 | 18 | 38 | 1000 | 10 | N 5.5 | |
| Oggi h: 01:00 | Sereno | 34 | 17 | 36 | 1000 | 10 | O/NO 11.1 | |
| Oggi h: 00:00 | Sereno | 35 | 17 | 34 | 1000 | 10 | O/NO 14.8 | |



